Time;durP1;ratioP1;P1;durP2;ratioP2;P2;SDS_P1;SDS_P2;PMS_P1;PMS_P2;Temp;Humidity;BMP_temperature;BMP_pressure;BME280_temperature;BME280_humidity;BME280_pressure;Samples;Min_cycle;Max_cycle;Signal;HPM_P1;HPM_P2
2023/05/06 00:00:29;;;;;;;21.10;16.30;;;11.90;99.90;;;;;;12454675;28;20446;-38
2023/05/06 00:06:32;;;;;;;19.70;15.95;;;11.90;99.90;;;;;;12439091;28;20045;-38
2023/05/06 00:12:34;;;;;;;20.65;16.98;;;12.00;99.90;;;;;;12465096;28;20109;-40
2023/05/06 00:18:36;;;;;;;19.50;13.35;;;11.80;99.90;;;;;;12492099;28;20113;-39
2023/05/06 00:24:37;;;;;;;20.42;15.55;;;11.90;99.90;;;;;;12477095;28;20136;-39
2023/05/06 00:30:39;;;;;;;19.83;15.45;;;11.90;99.90;;;;;;12476513;28;20045;-39
2023/05/06 00:36:41;;;;;;;20.88;15.35;;;12.00;99.90;;;;;;12491991;28;20552;-40
2023/05/06 00:42:43;;;;;;;18.42;14.88;;;11.90;99.90;;;;;;12475803;28;20041;-40
2023/05/06 00:48:45;;;;;;;15.43;12.45;;;11.90;99.90;;;;;;12488658;28;20057;-39
2023/05/06 00:54:48;;;;;;;21.63;15.18;;;12.00;99.90;;;;;;12484106;28;20509;-39
2023/05/06 01:00:51;;;;;;;17.08;12.07;;;11.90;99.90;;;;;;12490158;28;20103;-39
2023/05/06 01:06:56;;;;;;;19.73;14.48;;;11.90;99.90;;;;;;12481616;28;20072;-39
2023/05/06 01:13:57;;;;;;;20.88;15.32;;;11.70;99.90;;;;;;12490476;28;20041;-39
2023/05/06 01:20:01;;;;;;;19.88;15.55;;;11.50;99.90;;;;;;12346463;28;20043;-39
2023/05/06 01:26:02;;;;;;;21.83;15.70;;;11.20;99.90;;;;;;12484538;28;21680;-39
2023/05/06 01:32:35;;;;;;;33.72;16.65;;;11.10;99.90;;;;;;12488327;28;20094;-40
2023/05/06 01:38:46;;;;;;;161.07;15.95;;;11.20;99.90;;;;;;12485812;28;20575;-40
2023/05/06 01:44:48;;;;;;;73.03;12.63;;;11.10;99.90;;;;;;12491034;28;20494;-40
2023/05/06 01:50:50;;;;;;;81.47;15.55;;;11.20;99.90;;;;;;12479837;28;20041;-40
2023/05/06 01:56:53;;;;;;;24.27;11.82;;;11.30;99.90;;;;;;12470899;28;20057;-39
2023/05/06 02:02:55;;;;;;;121.10;15.75;;;11.20;99.90;;;;;;12477743;28;20481;-39
2023/05/06 02:08:56;;;;;;;61.47;14.32;;;11.30;99.90;;;;;;12481523;28;20521;-39
2023/05/06 02:14:58;;;;;;;79.00;14.43;;;11.20;99.90;;;;;;12497829;28;20131;-40
2023/05/06 02:21:02;;;;;;;66.80;13.27;;;11.20;99.90;;;;;;12500054;28;20406;-40
2023/05/06 02:27:03;;;;;;;33.88;11.25;;;11.20;99.90;;;;;;12490312;28;21050;-39
2023/05/06 02:33:05;;;;;;;24.55;11.13;;;11.20;99.90;;;;;;12490043;28;20168;-40
2023/05/06 02:39:07;;;;;;;27.80;12.15;;;11.30;99.90;;;;;;12468826;28;20052;-39
2023/05/06 02:45:09;;;;;;;43.20;13.48;;;11.20;99.90;;;;;;12473060;28;20046;-39
2023/05/06 02:51:13;;;;;;;26.10;12.50;;;11.20;99.90;;;;;;12469399;28;20065;-39
2023/05/06 02:57:15;;;;;;;31.63;12.77;;;11.20;99.90;;;;;;12487456;28;20126;-38
2023/05/06 03:03:17;;;;;;;23.42;13.45;;;11.20;99.90;;;;;;12480609;28;20045;-39
2023/05/06 03:09:19;;;;;;;24.08;14.23;;;11.40;99.90;;;;;;12490549;28;20056;-39
2023/05/06 03:15:21;;;;;;;19.05;12.43;;;11.10;99.90;;;;;;12470299;28;20678;-39
2023/05/06 03:21:22;;;;;;;24.05;12.60;;;11.20;99.90;;;;;;12475672;28;20079;-39
2023/05/06 03:27:24;;;;;;;35.53;12.90;;;11.20;99.90;;;;;;12481721;28;20052;-39
2023/05/06 03:33:26;;;;;;;56.40;14.25;;;11.20;99.90;;;;;;12484320;28;20056;-39
2023/05/06 03:39:28;;;;;;;54.53;14.45;;;11.10;99.90;;;;;;12487215;28;20049;-37
2023/05/06 03:45:30;;;;;;;68.05;14.20;;;11.10;99.90;;;;;;12475391;28;20056;-37
2023/05/06 03:51:32;;;;;;;86.38;15.15;;;11.20;99.90;;;;;;12459302;28;20410;-39
2023/05/06 03:57:34;;;;;;;104.20;14.35;;;11.00;99.90;;;;;;12487610;28;20128;-40
2023/05/06 04:03:36;;;;;;;70.00;13.95;;;10.90;99.90;;;;;;12471936;28;20061;-39
2023/05/06 04:09:39;;;;;;;102.95;14.65;;;11.00;99.90;;;;;;12470599;28;20061;-38
2023/05/06 04:15:41;;;;;;;73.63;12.90;;;11.00;99.90;;;;;;12494370;28;20050;-39
2023/05/06 04:21:44;;;;;;;105.35;15.10;;;11.10;99.90;;;;;;12508847;28;20060;-39
2023/05/06 04:27:46;;;;;;;123.75;15.25;;;11.00;99.90;;;;;;12489607;28;20045;-38
2023/05/06 04:33:48;;;;;;;109.25;16.67;;;11.10;99.90;;;;;;12496053;28;20490;-38
2023/05/06 04:39:50;;;;;;;150.48;17.88;;;11.00;99.90;;;;;;12496102;28;20049;-40
2023/05/06 04:45:53;;;;;;;141.65;17.05;;;11.00;99.90;;;;;;12473576;28;20042;-38
2023/05/06 04:51:55;;;;;;;118.00;17.20;;;11.10;99.90;;;;;;12500637;28;20553;-40
2023/05/06 04:57:57;;;;;;;99.57;15.75;;;11.20;99.90;;;;;;12485276;28;20124;-38
2023/05/06 05:03:59;;;;;;;56.22;13.98;;;11.10;99.90;;;;;;12500663;28;20040;-38
2023/05/06 05:10:01;;;;;;;47.45;15.95;;;11.20;99.90;;;;;;12500187;28;20045;-39
2023/05/06 05:16:03;;;;;;;55.53;15.27;;;11.20;99.90;;;;;;12454361;28;20054;-38
2023/05/06 05:22:05;;;;;;;49.90;15.73;;;11.20;99.90;;;;;;12448034;28;20045;-39
2023/05/06 05:28:07;;;;;;;41.50;14.40;;;11.40;99.90;;;;;;12437689;28;20054;-40
2023/05/06 05:34:09;;;;;;;16.30;10.88;;;11.30;99.90;;;;;;12447061;28;20077;-40
2023/05/06 05:40:11;;;;;;;24.40;13.93;;;11.30;99.90;;;;;;12426437;28;20080;-39
2023/05/06 05:46:13;;;;;;;20.75;13.18;;;11.50;99.90;;;;;;12439477;28;20091;-39
2023/05/06 05:52:15;;;;;;;18.30;11.25;;;11.60;99.90;;;;;;12451014;28;20129;-39
2023/05/06 05:58:17;;;;;;;25.73;13.23;;;11.70;99.90;;;;;;12456362;28;20066;-39
2023/05/06 06:04:18;;;;;;;19.73;12.73;;;11.80;99.90;;;;;;12457973;28;20084;-38
2023/05/06 06:10:20;;;;;;;21.58;13.98;;;11.50;99.90;;;;;;12446396;28;20046;-38
2023/05/06 06:16:22;;;;;;;14.35;9.13;;;11.60;99.90;;;;;;12437996;28;20050;-39
2023/05/06 06:22:25;;;;;;;19.77;12.00;;;11.60;99.90;;;;;;12450633;28;20073;-38
2023/05/06 06:28:27;;;;;;;25.02;14.50;;;11.60;99.90;;;;;;12427847;28;20058;-39
2023/05/06 06:34:28;;;;;;;23.20;14.48;;;11.80;99.90;;;;;;12447773;28;20124;-38
2023/05/06 06:40:30;;;;;;;18.08;11.85;;;11.70;99.90;;;;;;12427880;28;20057;-40
2023/05/06 06:46:33;;;;;;;24.67;15.23;;;11.90;99.90;;;;;;12440115;28;20053;-41
2023/05/06 06:52:35;;;;;;;22.88;14.95;;;11.80;99.90;;;;;;12442458;28;20064;-40
2023/05/06 06:58:37;;;;;;;21.45;14.30;;;11.90;99.90;;;;;;12425888;28;20046;-40
2023/05/06 07:04:39;;;;;;;23.58;14.95;;;11.80;99.90;;;;;;12415661;28;20046;-38
2023/05/06 07:10:41;;;;;;;20.40;13.45;;;11.90;99.90;;;;;;12432710;28;20049;-39
2023/05/06 07:16:43;;;;;;;22.35;14.57;;;11.90;99.90;;;;;;12418676;28;20420;-39
2023/05/06 07:22:47;;;;;;;21.73;13.23;;;12.00;99.90;;;;;;12450616;28;20656;-39
2023/05/06 07:28:49;;;;;;;20.52;12.40;;;11.80;99.90;;;;;;12424425;28;20049;-39
2023/05/06 07:34:51;;;;;;;19.42;12.43;;;12.10;99.90;;;;;;12421583;28;20054;-39
2023/05/06 07:40:53;;;;;;;16.95;10.80;;;11.90;99.90;;;;;;12434008;28;20050;-39
2023/05/06 07:46:55;;;;;;;17.92;11.13;;;11.80;99.90;;;;;;12448891;28;20066;-39
2023/05/06 07:52:57;;;;;;;13.15;8.55;;;12.00;99.90;;;;;;12421280;28;20050;-39
2023/05/06 07:58:59;;;;;;;15.75;10.20;;;12.30;99.90;;;;;;12421330;28;20580;-40
2023/05/06 08:05:01;;;;;;;16.02;8.93;;;12.60;99.90;;;;;;12443901;28;20527;-39
2023/05/06 08:11:03;;;;;;;17.00;10.82;;;12.60;99.90;;;;;;12443103;28;20123;-39
2023/05/06 08:17:05;;;;;;;12.45;8.75;;;13.40;99.90;;;;;;12448103;28;20099;-38
2023/05/06 08:23:06;;;;;;;10.07;7.85;;;13.90;99.90;;;;;;12451997;28;20137;-38
2023/05/06 08:29:08;;;;;;;13.30;7.97;;;14.60;99.90;;;;;;12425204;28;20050;-41
2023/05/06 08:35:10;;;;;;;11.80;7.97;;;15.00;99.90;;;;;;12438307;28;20045;-39
2023/05/06 08:41:15;;;;;;;11.45;7.63;;;15.20;99.90;;;;;;12446990;28;20042;-39
2023/05/06 08:47:17;;;;;;;;;;;15.30;99.90;;;;;;12430504;28;20057;-38
2023/05/06 08:53:19;;;;;;;14.70;8.20;;;15.50;99.90;;;;;;12426258;28;19921;-38
2023/05/06 08:59:29;;;;;;;9.13;6.70;;;14.90;99.90;;;;;;12443136;28;20413;-39
2023/05/06 09:05:30;;;;;;;8.18;6.28;;;15.20;99.90;;;;;;12428533;28;20049;-39
2023/05/06 09:11:35;;;;;;;7.15;4.75;;;15.30;99.90;;;;;;12423487;28;20053;-39
2023/05/06 09:17:37;;;;;;;;;;;15.80;99.90;;;;;;12426536;28;20053;-40
2023/05/06 09:23:39;;;;;;;10.05;6.43;;;15.80;99.90;;;;;;12405889;28;20033;-39
2023/05/06 09:30:08;;;;;;;9.20;6.22;;;16.00;99.90;;;;;;12437299;28;20050;-39
2023/05/06 09:36:12;;;;;;;10.27;5.22;;;16.30;99.90;;;;;;12479883;28;20482;-38
2023/05/06 09:42:15;;;;;;;;;;;17.30;99.90;;;;;;12483957;28;20076;-39
2023/05/06 09:48:16;;;;;;;8.23;5.63;;;17.70;99.90;;;;;;12489372;28;19940;-39
2023/05/06 09:54:18;;;;;;;8.88;5.38;;;17.20;99.90;;;;;;12469206;28;20128;-40
2023/05/06 10:00:26;;;;;;;8.13;4.88;;;16.30;99.90;;;;;;12491016;28;20053;-39
2023/05/06 10:06:29;;;;;;;7.93;5.10;;;16.80;99.90;;;;;;12478942;28;20271;-40
2023/05/06 10:12:31;;;;;;;8.02;5.10;;;17.00;99.90;;;;;;12479723;28;20054;-39
2023/05/06 10:18:35;;;;;;;6.90;5.20;;;17.20;99.90;;;;;;12493145;28;20319;-39
2023/05/06 10:25:22;;;;;;;8.57;4.90;;;16.20;99.90;;;;;;12484706;28;20374;-40
2023/05/06 10:31:26;;;;;;;7.63;5.00;;;16.20;99.90;;;;;;12447350;28;20571;-40
2023/05/06 10:37:30;;;;;;;8.30;4.95;;;16.80;99.90;;;;;;12478348;28;20061;-40
2023/05/06 10:43:33;;;;;;;8.00;5.03;;;17.40;99.90;;;;;;12488465;28;20398;-40
2023/05/06 10:49:35;;;;;;;6.70;4.10;;;18.10;99.90;;;;;;12473888;28;20128;-39
2023/05/06 10:55:37;;;;;;;9.55;4.30;;;18.50;99.90;;;;;;12495975;28;20049;-40
2023/05/06 11:01:41;;;;;;;7.28;3.92;;;18.50;99.90;;;;;;12490663;28;20195;-42
2023/05/06 11:07:43;;;;;;;6.03;4.57;;;18.90;99.90;;;;;;12485689;28;20061;-40
2023/05/06 11:13:52;;;;;;;5.95;4.28;;;18.30;99.90;;;;;;12450730;28;20046;-39
2023/05/06 11:20:16;;;;;;;7.47;4.25;;;17.40;99.90;;;;;;12463019;28;20136;-39
2023/05/06 11:26:18;;;;;;;6.75;3.45;;;16.60;99.90;;;;;;12473602;28;20078;-40
2023/05/06 11:32:22;;;;;;;4.95;3.30;;;17.70;99.90;;;;;;12495747;28;20044;-40
2023/05/06 11:38:25;;;;;;;6.05;3.45;;;18.40;99.90;;;;;;12484750;28;20515;-39
2023/05/06 11:44:30;;;;;;;6.03;2.20;;;17.90;99.90;;;;;;12483836;28;20140;-40
2023/05/06 11:50:31;;;;;;;4.28;2.50;;;18.60;99.90;;;;;;12457298;28;20128;-40
2023/05/06 11:56:47;;;;;;;5.68;2.58;;;18.80;99.90;;;;;;12484787;28;20081;-40
2023/05/06 12:02:55;;;;;;;5.47;2.75;;;19.20;99.90;;;;;;12482108;28;20056;-39
2023/05/06 12:08:57;;;;;;;4.78;2.33;;;18.90;99.90;;;;;;12473439;28;20399;-39
2023/05/06 12:14:59;;;;;;;4.65;2.40;;;19.50;99.90;;;;;;12426966;28;20564;-39
2023/05/06 12:21:01;;;;;;;4.43;2.58;;;19.50;99.90;;;;;;12467513;28;20569;-40
2023/05/06 12:27:03;;;;;;;3.88;2.30;;;19.70;99.90;;;;;;12474316;28;20037;-40
2023/05/06 12:33:07;;;;;;;5.57;1.92;;;20.00;99.90;;;;;;12481329;28;20417;-40
2023/05/06 12:39:10;;;;;;;;;;;20.40;99.90;;;;;;12482310;28;20049;-40
2023/05/06 12:45:13;;;;;;;4.43;2.07;;;19.70;99.90;;;;;;12479168;28;20007;-40
2023/05/06 12:51:19;;;;;;;4.05;1.73;;;19.30;99.90;;;;;;12480250;28;20296;-40
2023/05/06 12:57:22;;;;;;;3.75;1.83;;;18.90;99.90;;;;;;12487825;28;20688;-40
2023/05/06 13:03:24;;;;;;;5.38;2.45;;;18.80;99.90;;;;;;12489356;28;20136;-40
2023/05/06 13:09:26;;;;;;;4.05;2.30;;;18.70;99.90;;;;;;12481767;28;20064;-40
2023/05/06 13:15:28;;;;;;;5.03;2.10;;;19.20;99.90;;;;;;12489160;28;20041;-40
2023/05/06 13:21:33;;;;;;;4.18;2.70;;;19.50;99.90;;;;;;12480225;28;20555;-40
2023/05/06 13:27:35;;;;;;;4.50;2.40;;;19.30;99.90;;;;;;12479778;28;20532;-40
2023/05/06 13:33:37;;;;;;;6.60;2.50;;;19.20;99.90;;;;;;12484460;28;20057;-40
2023/05/06 13:39:39;;;;;;;5.40;2.60;;;19.30;99.90;;;;;;12506187;28;20053;-39
2023/05/06 13:45:43;;;;;;;5.38;3.08;;;19.20;99.90;;;;;;12509161;28;20041;-40
2023/05/06 13:51:45;;;;;;;6.25;3.22;;;18.30;99.90;;;;;;12495980;28;20124;-40
2023/05/06 13:57:47;;;;;;;5.82;3.30;;;17.80;99.90;;;;;;12487186;28;20049;-40
2023/05/06 14:03:49;;;;;;;5.03;2.80;;;18.10;99.90;;;;;;12492273;28;20128;-40
2023/05/06 14:09:51;;;;;;;5.43;2.80;;;18.60;99.90;;;;;;12489805;28;20134;-41
2023/05/06 14:15:54;;;;;;;4.97;2.60;;;19.00;99.90;;;;;;12493204;28;20049;-40
2023/05/06 14:21:55;;;;;;;5.47;2.77;;;19.10;99.90;;;;;;12482462;28;20060;-40
2023/05/06 14:27:57;;;;;;;4.65;2.35;;;18.50;99.90;;;;;;12499442;28;20056;-40
2023/05/06 14:34:01;;;;;;;5.75;2.80;;;18.30;99.90;;;;;;12490090;28;21247;-39
2023/05/06 14:40:04;;;;;;;6.20;2.40;;;18.30;99.90;;;;;;12472313;28;20514;-39
2023/05/06 14:46:06;;;;;;;5.72;2.45;;;18.10;99.90;;;;;;12485192;28;20046;-40
2023/05/06 14:52:08;;;;;;;5.97;3.13;;;17.90;99.90;;;;;;12467051;28;20409;-40
2023/05/06 14:58:10;;;;;;;5.38;2.38;;;17.90;99.90;;;;;;12490757;28;20053;-39
2023/05/06 15:04:11;;;;;;;5.72;2.40;;;18.30;99.90;;;;;;12477161;28;20085;-40
2023/05/06 15:10:14;;;;;;;4.68;2.60;;;18.40;99.90;;;;;;12479502;28;20045;-38
2023/05/06 15:16:15;;;;;;;6.25;2.63;;;18.50;99.90;;;;;;12491639;28;20132;-39
2023/05/06 15:22:17;;;;;;;4.63;2.42;;;18.10;99.90;;;;;;12482364;28;20052;-39
2023/05/06 15:28:19;;;;;;;9.40;2.72;;;18.10;99.90;;;;;;12485228;28;20071;-39
2023/05/06 15:34:25;;;;;;;5.65;2.58;;;18.10;99.90;;;;;;12482397;28;20049;-40
2023/05/06 15:40:27;;;;;;;8.00;3.35;;;18.40;99.90;;;;;;12489728;28;20061;-39
2023/05/06 15:46:30;;;;;;;5.35;2.58;;;18.60;99.90;;;;;;12493315;28;20069;-39
2023/05/06 15:52:31;;;;;;;8.23;2.70;;;18.10;99.90;;;;;;12492581;28;20119;-40
2023/05/06 15:58:34;;;;;;;5.97;2.70;;;18.00;99.90;;;;;;12487272;28;20148;-40
2023/05/06 16:04:36;;;;;;;5.88;2.75;;;18.00;99.90;;;;;;12502939;28;20057;-40
2023/05/06 16:10:38;;;;;;;7.72;3.00;;;18.00;99.90;;;;;;12506685;28;20140;-39
2023/05/06 16:16:40;;;;;;;5.20;2.97;;;18.00;99.90;;;;;;12498384;28;20045;-40
2023/05/06 16:22:49;;;;;;;5.40;2.67;;;18.00;99.90;;;;;;12478551;28;20152;-40
2023/05/06 16:28:52;;;;;;;9.13;3.15;;;17.80;99.90;;;;;;12488821;28;20095;-40
2023/05/06 16:34:54;;;;;;;6.30;3.05;;;17.90;99.90;;;;;;12494922;28;20048;-39
2023/05/06 16:40:56;;;;;;;5.53;3.47;;;17.80;99.90;;;;;;12481571;28;20052;-39
2023/05/06 16:46:58;;;;;;;5.55;3.70;;;17.50;99.90;;;;;;12490588;28;20485;-39
2023/05/06 16:52:59;;;;;;;6.68;3.88;;;17.50;99.90;;;;;;12487361;28;20034;-40
2023/05/06 16:59:01;;;;;;;6.20;3.65;;;17.40;99.90;;;;;;12485577;28;20124;-39
2023/05/06 17:05:04;;;;;;;6.57;3.75;;;17.30;99.90;;;;;;12485129;28;20171;-39
2023/05/06 17:11:06;;;;;;;8.88;4.20;;;17.20;99.90;;;;;;12484216;28;20064;-40
2023/05/06 17:17:08;;;;;;;6.55;3.67;;;17.00;99.90;;;;;;12467832;28;20045;-40
2023/05/06 17:23:10;;;;;;;5.88;4.20;;;16.90;99.90;;;;;;12503502;28;20485;-39
2023/05/06 17:29:12;;;;;;;7.85;4.10;;;16.80;99.90;;;;;;12490271;28;20133;-40
2023/05/06 17:35:13;;;;;;;7.78;4.35;;;16.80;99.90;;;;;;12503678;28;20045;-39
2023/05/06 17:41:15;;;;;;;8.75;4.47;;;16.80;99.90;;;;;;12499728;28;20390;-39
2023/05/06 17:47:21;;;;;;;6.20;3.60;;;16.70;99.90;;;;;;12495981;28;20041;-40
2023/05/06 17:53:23;;;;;;;7.57;4.60;;;16.70;99.90;;;;;;12475046;28;20569;-39
2023/05/06 17:59:25;;;;;;;5.68;3.80;;;16.50;99.90;;;;;;12486331;28;20517;-39
2023/05/06 18:05:28;;;;;;;6.90;4.30;;;16.40;99.90;;;;;;12485047;28;20092;-40
2023/05/06 18:11:30;;;;;;;7.65;4.35;;;16.20;99.90;;;;;;12471955;28;20049;-39
2023/05/06 18:17:32;;;;;;;7.82;4.30;;;16.00;99.90;;;;;;12478390;28;20557;-40
2023/05/06 18:23:34;;;;;;;9.57;5.10;;;15.90;99.90;;;;;;12483742;28;20064;-38
2023/05/06 18:29:36;;;;;;;7.32;4.28;;;15.80;99.90;;;;;;12498485;28;20045;-39
2023/05/06 18:35:38;;;;;;;7.78;4.70;;;15.70;99.90;;;;;;12498790;28;20049;-40
2023/05/06 18:41:43;;;;;;;8.38;4.70;;;15.60;99.90;;;;;;12473861;28;20208;-38
2023/05/06 18:47:45;;;;;;;6.05;4.18;;;15.50;99.90;;;;;;12479033;28;20053;-39
2023/05/06 18:53:46;;;;;;;7.93;4.72;;;15.40;99.90;;;;;;12490559;28;20040;-39
2023/05/06 18:59:48;;;;;;;7.10;4.13;;;15.30;99.90;;;;;;12488770;28;20132;-40
2023/05/06 19:05:51;;;;;;;6.45;4.43;;;15.20;99.90;;;;;;12452385;28;20050;-39
2023/05/06 19:11:54;;;;;;;6.95;4.72;;;15.20;99.90;;;;;;12437008;28;20038;-40
2023/05/06 19:17:56;;;;;;;7.72;4.88;;;15.20;99.90;;;;;;12435572;28;20054;-38
2023/05/06 19:23:59;;;;;;;10.35;5.75;;;15.10;99.90;;;;;;12436105;28;20046;-39
2023/05/06 19:30:01;;;;;;;7.90;4.60;;;15.00;99.90;;;;;;12433613;28;20092;-40
2023/05/06 19:36:03;;;;;;;7.60;4.97;;;15.00;99.90;;;;;;12433109;28;20080;-39
2023/05/06 19:42:05;;;;;;;7.75;5.03;;;14.90;99.90;;;;;;12464169;28;20069;-39
2023/05/06 19:48:07;;;;;;;7.90;4.72;;;14.80;99.90;;;;;;12445877;28;20058;-38
2023/05/06 19:54:09;;;;;;;9.70;6.00;;;14.70;99.90;;;;;;12442190;28;20470;-39
2023/05/06 20:00:12;;;;;;;9.52;5.80;;;14.60;99.90;;;;;;12441594;28;20054;-39
2023/05/06 20:06:14;;;;;;;10.80;7.43;;;14.50;99.90;;;;;;12458416;28;20141;-38
2023/05/06 20:12:16;;;;;;;14.27;9.52;;;14.30;99.90;;;;;;12484522;28;20694;-39
2023/05/06 20:18:18;;;;;;;16.92;11.02;;;14.10;99.90;;;;;;12501080;28;20053;-40
2023/05/06 20:24:19;;;;;;;16.75;11.57;;;13.90;99.90;;;;;;12484946;28;20082;-38
2023/05/06 20:30:21;;;;;;;17.38;12.45;;;13.70;99.90;;;;;;12497605;28;20142;-38
2023/05/06 20:36:23;;;;;;;19.92;12.63;;;13.60;99.90;;;;;;12488444;28;20045;-38
2023/05/06 20:42:25;;;;;;;16.98;12.10;;;13.50;99.90;;;;;;12486464;28;20045;-39
2023/05/06 20:48:29;;;;;;;17.33;12.57;;;13.40;99.90;;;;;;12487119;28;20083;-38
2023/05/06 20:54:31;;;;;;;18.55;13.23;;;13.40;99.90;;;;;;12502095;28;20041;-37
2023/05/06 21:00:33;;;;;;;21.40;14.25;;;13.20;99.90;;;;;;12480715;28;20374;-39
2023/05/06 21:06:34;;;;;;;20.63;14.38;;;13.10;99.90;;;;;;12489557;28;20060;-38
2023/05/06 21:12:36;;;;;;;22.77;14.52;;;13.10;99.90;;;;;;12479435;28;20490;-38
2023/05/06 21:18:38;;;;;;;20.48;13.68;;;13.20;99.90;;;;;;12486502;28;20144;-36
2023/05/06 21:24:40;;;;;;;17.00;13.45;;;13.30;99.90;;;;;;12486363;28;20136;-36
2023/05/06 21:30:41;;;;;;;19.00;13.82;;;13.40;99.90;;;;;;12482258;28;20041;-36
2023/05/06 21:36:43;;;;;;;17.98;14.57;;;13.20;99.90;;;;;;12488088;28;20045;-36
2023/05/06 21:42:45;;;;;;;17.08;13.80;;;13.20;99.90;;;;;;12485568;28;20143;-36
2023/05/06 21:48:47;;;;;;;20.73;15.80;;;12.90;99.90;;;;;;12481419;28;20084;-37
2023/05/06 21:54:49;;;;;;;20.00;15.15;;;12.70;99.90;;;;;;12463996;28;20071;-36
2023/05/06 22:00:52;;;;;;;19.67;15.40;;;12.60;99.90;;;;;;12488936;28;20095;-36
2023/05/06 22:06:54;;;;;;;20.80;16.25;;;12.60;99.90;;;;;;12457373;28;20050;-36
2023/05/06 22:12:56;;;;;;;20.98;15.27;;;12.40;99.90;;;;;;12438824;28;20053;-36
2023/05/06 22:18:58;;;;;;;20.70;16.17;;;12.40;99.90;;;;;;12430232;28;20057;-36
2023/05/06 22:25:00;;;;;;;19.02;15.88;;;12.40;99.90;;;;;;12447078;28;20049;-36
2023/05/06 22:31:01;;;;;;;21.38;16.80;;;12.30;99.90;;;;;;12429189;28;20099;-36
2023/05/06 22:37:09;;;;;;;24.20;17.95;;;12.10;99.90;;;;;;12434022;28;20085;-36
2023/05/06 22:43:11;;;;;;;25.38;16.52;;;12.00;99.90;;;;;;12435263;28;20046;-36
2023/05/06 22:49:14;;;;;;;20.77;17.20;;;12.10;99.90;;;;;;12442317;28;20042;-36
2023/05/06 22:55:16;;;;;;;24.88;17.58;;;11.90;99.90;;;;;;12442527;28;20084;-36
2023/05/06 23:01:18;;;;;;;23.88;17.20;;;11.80;99.90;;;;;;12445533;28;20056;-36
2023/05/06 23:07:20;;;;;;;23.08;17.60;;;11.70;99.90;;;;;;12449553;28;20092;-36
2023/05/06 23:13:22;;;;;;;25.23;18.35;;;11.60;99.90;;;;;;12457885;28;20110;-37
2023/05/06 23:19:24;;;;;;;25.52;18.08;;;11.40;99.90;;;;;;12475090;28;20402;-37
2023/05/06 23:25:26;;;;;;;26.25;18.20;;;11.30;99.90;;;;;;12457199;28;20281;-37
2023/05/06 23:31:28;;;;;;;27.02;19.08;;;11.20;99.90;;;;;;12477605;28;20049;-36
2023/05/06 23:37:30;;;;;;;30.25;18.38;;;11.20;99.90;;;;;;12494807;28;20044;-36
2023/05/06 23:43:32;;;;;;;26.30;17.73;;;11.10;99.90;;;;;;12468785;28;20464;-37
2023/05/06 23:49:34;;;;;;;25.80;19.00;;;11.10;99.90;;;;;;12491444;28;20045;-37
2023/05/06 23:55:36;;;;;;;24.50;18.63;;;11.10;99.90;;;;;;12501247;28;20184;-36
